Lng/c Golar Seal — V7AE9 — position and weather

sailwx.info

Track history (hours):
 
Tides and Currents Weather Stations Pressure Air Temp Water Temp Dewpoint Dewpoint Depression Visibility Wind Speed Wind Dir Waves Ship Positions

Lng/c Golar Seal

Last reported at 2017-Oct-09 00:33 UTC. Time now 2017-Oct-17 22:28 UTC.
Position N 25°33' W 079°35'.
Warning: this ship's position is 8 days out of date.

Length 281 m; draft 9.2 m.

Type: Tanker. MMSI: 538004980.

Date/timePositionNaut miles runAvg speedWind from/ knotsBaromVisibWave heightAir tempDewpointWater temp
2017-Oct-09 00:33N 25°33' W 079°35'1 8.9
2017-Oct-09 00:23N 25°35' W 079°34'3 8.8
2017-Oct-09 00:00N 25°38' W 079°34'4 8.4
2017-Oct-08 23:30N 25°42' W 079°34'4 8.3
2017-Oct-08 23:00N 25°46' W 079°33'4 8.3
2017-Oct-08 22:30N 25°50' W 079°32'4 8.4
2017-Oct-08 22:00N 25°54' W 079°31'4 8.7
2017-Oct-08 21:30N 25°58' W 079°29'4 8.6
2017-Oct-08 21:01N 26°02' W 079°26'4 8.5
2017-Oct-08 20:30N 26°06' W 079°24'4 8.8
2017-Oct-08 20:01N 26°10' W 079°22'5 9.1
2017-Oct-08 19:30N 26°12' W 079°17'510.1
2017-Oct-08 19:00N 26°14' W 079°12'  
Track history (hours):
 
Tides and Currents Weather Stations Pressure Air Temp Water Temp Dewpoint Dewpoint Depression Visibility Wind Speed Wind Dir Waves Ship Positions

Lng/c Golar Seal

Last reported at 2017-Oct-09 00:33 UTC. Time now 2017-Oct-17 22:28 UTC.
Position N 25°33' W 079°35'.
Warning: this ship's position is 8 days out of date.

Length 281 m; draft 9.2 m.

Type: Tanker. MMSI: 538004980.

Date/timePositionNaut miles runAvg speedWind from/ knotsBaromVisibWave heightAir tempDewpointWater temp
2017-Oct-09 00:33N 25°33' W 079°35'1 8.9
2017-Oct-09 00:23N 25°35' W 079°34'3 8.8
2017-Oct-09 00:00N 25°38' W 079°34'4 8.4
2017-Oct-08 23:30N 25°42' W 079°34'4 8.3
2017-Oct-08 23:00N 25°46' W 079°33'4 8.3
2017-Oct-08 22:30N 25°50' W 079°32'4 8.4
2017-Oct-08 22:00N 25°54' W 079°31'4 8.7
2017-Oct-08 21:30N 25°58' W 079°29'4 8.6
2017-Oct-08 21:01N 26°02' W 079°26'4 8.5
2017-Oct-08 20:30N 26°06' W 079°24'4 8.8
2017-Oct-08 20:01N 26°10' W 079°22'5 9.1
2017-Oct-08 19:30N 26°12' W 079°17'510.1
2017-Oct-08 19:00N 26°14' W 079°12'  

Dump ship's entire track history